sensor_id;sensor_type;location;lat;lon;timestamp;temperature;humidity
4097;DHT22;2062;50.694;7.246;2024-03-02T00:00:19;7.40;51.60
4097;DHT22;2062;50.694;7.246;2024-03-02T00:02:47;7.40;51.50
4097;DHT22;2062;50.694;7.246;2024-03-02T00:05:17;7.40;51.40
4097;DHT22;2062;50.694;7.246;2024-03-02T00:07:45;7.40;51.50
4097;DHT22;2062;50.694;7.246;2024-03-02T00:10:16;7.40;51.50
4097;DHT22;2062;50.694;7.246;2024-03-02T00:12:47;7.40;51.90
4097;DHT22;2062;50.694;7.246;2024-03-02T00:15:35;7.40;51.90
4097;DHT22;2062;50.694;7.246;2024-03-02T00:18:06;7.40;52.30
4097;DHT22;2062;50.694;7.246;2024-03-02T00:20:35;7.40;51.90
4097;DHT22;2062;50.694;7.246;2024-03-02T00:23:03;7.40;51.70
4097;DHT22;2062;50.694;7.246;2024-03-02T00:25:37;7.40;52.10
4097;DHT22;2062;50.694;7.246;2024-03-02T00:28:04;7.40;52.20
4097;DHT22;2062;50.694;7.246;2024-03-02T00:30:51;7.40;52.20
4097;DHT22;2062;50.694;7.246;2024-03-02T00:33:19;7.40;52.40
4097;DHT22;2062;50.694;7.246;2024-03-02T00:35:47;7.50;52.40
4097;DHT22;2062;50.694;7.246;2024-03-02T00:38:15;7.50;52.50
4097;DHT22;2062;50.694;7.246;2024-03-02T00:40:42;7.50;52.40
4097;DHT22;2062;50.694;7.246;2024-03-02T00:46:00;7.50;52.60
4097;DHT22;2062;50.694;7.246;2024-03-02T00:48:27;7.50;52.20
4097;DHT22;2062;50.694;7.246;2024-03-02T00:50:58;7.60;52.30
4097;DHT22;2062;50.694;7.246;2024-03-02T00:53:26;7.60;52.10
4097;DHT22;2062;50.694;7.246;2024-03-02T00:55:53;7.60;52.50
4097;DHT22;2062;50.694;7.246;2024-03-02T00:58:20;7.60;53.30
4097;DHT22;2062;50.694;7.246;2024-03-02T01:00:46;7.60;52.80
4097;DHT22;2062;50.694;7.246;2024-03-02T01:03:13;7.70;52.60
4097;DHT22;2062;50.694;7.246;2024-03-02T01:05:41;7.70;52.80
4097;DHT22;2062;50.694;7.246;2024-03-02T01:08:10;7.70;52.80
4097;DHT22;2062;50.694;7.246;2024-03-02T01:10:37;7.70;52.60
4097;DHT22;2062;50.694;7.246;2024-03-02T01:13:04;7.70;52.50
4097;DHT22;2062;50.694;7.246;2024-03-02T01:15:31;7.80;52.60
4097;DHT22;2062;50.694;7.246;2024-03-02T01:17:58;7.70;52.40
4097;DHT22;2062;50.694;7.246;2024-03-02T01:20:25;7.70;52.60
4097;DHT22;2062;50.694;7.246;2024-03-02T01:22:52;7.70;52.40
4097;DHT22;2062;50.694;7.246;2024-03-02T01:25:20;7.70;52.30
4097;DHT22;2062;50.694;7.246;2024-03-02T01:27:47;7.70;52.20
4097;DHT22;2062;50.694;7.246;2024-03-02T01:30:14;7.70;52.90
4097;DHT22;2062;50.694;7.246;2024-03-02T01:32:41;7.70;52.30
4097;DHT22;2062;50.694;7.246;2024-03-02T01:35:08;7.70;52.40
4097;DHT22;2062;50.694;7.246;2024-03-02T01:37:35;7.70;52.30
4097;DHT22;2062;50.694;7.246;2024-03-02T01:40:01;7.70;52.60
4097;DHT22;2062;50.694;7.246;2024-03-02T01:42:36;7.70;52.40
4097;DHT22;2062;50.694;7.246;2024-03-02T01:45:04;7.70;53.00
4097;DHT22;2062;50.694;7.246;2024-03-02T01:47:31;7.60;52.20
4097;DHT22;2062;50.694;7.246;2024-03-02T01:49:59;7.60;53.00
4097;DHT22;2062;50.694;7.246;2024-03-02T01:52:26;7.60;52.20
4097;DHT22;2062;50.694;7.246;2024-03-02T01:54:53;7.60;52.20
4097;DHT22;2062;50.694;7.246;2024-03-02T01:57:20;7.60;52.30
4097;DHT22;2062;50.694;7.246;2024-03-02T01:59:48;7.60;52.30
4097;DHT22;2062;50.694;7.246;2024-03-02T02:02:16;7.50;52.50
4097;DHT22;2062;50.694;7.246;2024-03-02T02:04:43;7.50;52.50
4097;DHT22;2062;50.694;7.246;2024-03-02T02:07:10;7.60;52.30
4097;DHT22;2062;50.694;7.246;2024-03-02T02:09:37;7.60;52.30
4097;DHT22;2062;50.694;7.246;2024-03-02T02:12:04;7.50;52.30
4097;DHT22;2062;50.694;7.246;2024-03-02T02:14:32;7.50;52.70
4097;DHT22;2062;50.694;7.246;2024-03-02T02:17:00;7.50;52.40
4097;DHT22;2062;50.694;7.246;2024-03-02T02:19:27;7.50;53.00
4097;DHT22;2062;50.694;7.246;2024-03-02T02:21:58;7.50;52.40
4097;DHT22;2062;50.694;7.246;2024-03-02T02:24:25;7.50;52.50
4097;DHT22;2062;50.694;7.246;2024-03-02T02:26:51;7.50;52.20
4097;DHT22;2062;50.694;7.246;2024-03-02T02:29:18;7.40;52.20
4097;DHT22;2062;50.694;7.246;2024-03-02T02:31:45;7.50;52.50
4097;DHT22;2062;50.694;7.246;2024-03-02T02:34:12;7.40;52.40
4097;DHT22;2062;50.694;7.246;2024-03-02T02:36:40;7.40;52.40
4097;DHT22;2062;50.694;7.246;2024-03-02T02:39:10;7.40;52.40
4097;DHT22;2062;50.694;7.246;2024-03-02T02:41:38;7.40;52.30
4097;DHT22;2062;50.694;7.246;2024-03-02T02:44:05;7.40;52.30
4097;DHT22;2062;50.694;7.246;2024-03-02T02:46:31;7.40;52.30
4097;DHT22;2062;50.694;7.246;2024-03-02T02:48:58;7.40;52.30
4097;DHT22;2062;50.694;7.246;2024-03-02T02:51:25;7.30;52.40
4097;DHT22;2062;50.694;7.246;2024-03-02T02:53:52;7.30;52.60
4097;DHT22;2062;50.694;7.246;2024-03-02T02:56:20;7.30;52.40
4097;DHT22;2062;50.694;7.246;2024-03-02T02:58:46;7.30;52.50
4097;DHT22;2062;50.694;7.246;2024-03-02T03:01:14;7.30;52.60
4097;DHT22;2062;50.694;7.246;2024-03-02T03:03:42;7.30;52.60
4097;DHT22;2062;50.694;7.246;2024-03-02T03:06:09;7.30;52.60
4097;DHT22;2062;50.694;7.246;2024-03-02T03:08:36;7.20;52.40
4097;DHT22;2062;50.694;7.246;2024-03-02T03:11:03;7.20;52.40
4097;DHT22;2062;50.694;7.246;2024-03-02T03:13:31;7.20;52.30
4097;DHT22;2062;50.694;7.246;2024-03-02T03:15:58;7.20;52.20
4097;DHT22;2062;50.694;7.246;2024-03-02T03:18:25;7.20;52.20
4097;DHT22;2062;50.694;7.246;2024-03-02T03:20:52;7.20;52.20
4097;DHT22;2062;50.694;7.246;2024-03-02T03:23:19;7.30;52.40
4097;DHT22;2062;50.694;7.246;2024-03-02T03:25:46;7.20;52.30
4097;DHT22;2062;50.694;7.246;2024-03-02T03:28:13;7.20;52.20
4097;DHT22;2062;50.694;7.246;2024-03-02T03:30:41;7.10;52.10
4097;DHT22;2062;50.694;7.246;2024-03-02T03:33:08;7.20;52.20
4097;DHT22;2062;50.694;7.246;2024-03-02T03:35:36;7.20;52.20
4097;DHT22;2062;50.694;7.246;2024-03-02T03:38:03;7.10;52.10
4097;DHT22;2062;50.694;7.246;2024-03-02T03:40:30;7.10;52.20
4097;DHT22;2062;50.694;7.246;2024-03-02T03:42:57;7.10;52.20
4097;DHT22;2062;50.694;7.246;2024-03-02T03:45:25;7.10;52.20
4097;DHT22;2062;50.694;7.246;2024-03-02T03:47:53;7.10;52.20
4097;DHT22;2062;50.694;7.246;2024-03-02T03:50:20;7.10;52.20
4097;DHT22;2062;50.694;7.246;2024-03-02T03:52:47;7.10;52.30
4097;DHT22;2062;50.694;7.246;2024-03-02T03:55:14;7.10;52.30
4097;DHT22;2062;50.694;7.246;2024-03-02T03:57:40;7.10;52.30
4097;DHT22;2062;50.694;7.246;2024-03-02T04:00:08;7.10;52.30
4097;DHT22;2062;50.694;7.246;2024-03-02T04:02:36;7.10;52.30
4097;DHT22;2062;50.694;7.246;2024-03-02T04:05:05;7.10;52.30
4097;DHT22;2062;50.694;7.246;2024-03-02T04:07:35;7.10;52.20
4097;DHT22;2062;50.694;7.246;2024-03-02T04:10:07;7.10;52.50
4097;DHT22;2062;50.694;7.246;2024-03-02T04:12:34;7.10;52.50
4097;DHT22;2062;50.694;7.246;2024-03-02T04:15:01;7.10;52.50
4097;DHT22;2062;50.694;7.246;2024-03-02T04:17:30;7.10;52.50
4097;DHT22;2062;50.694;7.246;2024-03-02T04:19:57;7.10;52.60
4097;DHT22;2062;50.694;7.246;2024-03-02T04:22:25;7.20;52.50
4097;DHT22;2062;50.694;7.246;2024-03-02T04:24:52;7.20;52.50
4097;DHT22;2062;50.694;7.246;2024-03-02T04:27:19;7.20;52.50
4097;DHT22;2062;50.694;7.246;2024-03-02T04:29:46;7.20;52.40
4097;DHT22;2062;50.694;7.246;2024-03-02T04:32:13;7.10;52.40
4097;DHT22;2062;50.694;7.246;2024-03-02T04:34:40;7.10;52.30
4097;DHT22;2062;50.694;7.246;2024-03-02T04:37:06;7.10;52.20
4097;DHT22;2062;50.694;7.246;2024-03-02T04:39:36;7.10;52.20
4097;DHT22;2062;50.694;7.246;2024-03-02T04:42:03;7.10;52.30
4097;DHT22;2062;50.694;7.246;2024-03-02T04:44:30;7.10;52.30
4097;DHT22;2062;50.694;7.246;2024-03-02T04:46:56;7.10;52.50
4097;DHT22;2062;50.694;7.246;2024-03-02T04:49:23;7.00;52.40
4097;DHT22;2062;50.694;7.246;2024-03-02T04:51:50;7.00;52.40
4097;DHT22;2062;50.694;7.246;2024-03-02T04:54:17;7.00;52.30
4097;DHT22;2062;50.694;7.246;2024-03-02T04:56:45;7.00;52.40
4097;DHT22;2062;50.694;7.246;2024-03-02T04:59:16;7.00;52.40
4097;DHT22;2062;50.694;7.246;2024-03-02T05:01:43;7.00;52.50
4097;DHT22;2062;50.694;7.246;2024-03-02T05:04:10;7.00;52.60
4097;DHT22;2062;50.694;7.246;2024-03-02T05:06:37;7.00;52.50
4097;DHT22;2062;50.694;7.246;2024-03-02T05:09:05;6.90;52.50
4097;DHT22;2062;50.694;7.246;2024-03-02T05:11:32;6.90;52.50
4097;DHT22;2062;50.694;7.246;2024-03-02T05:14:20;6.90;52.50
4097;DHT22;2062;50.694;7.246;2024-03-02T05:16:46;6.90;52.50
4097;DHT22;2062;50.694;7.246;2024-03-02T05:19:13;7.00;52.50
4097;DHT22;2062;50.694;7.246;2024-03-02T05:21:39;7.00;52.60
4097;DHT22;2062;50.694;7.246;2024-03-02T05:24:06;7.00;52.60
4097;DHT22;2062;50.694;7.246;2024-03-02T05:26:33;7.00;52.50
4097;DHT22;2062;50.694;7.246;2024-03-02T05:29:00;7.00;52.50
4097;DHT22;2062;50.694;7.246;2024-03-02T05:31:28;7.00;52.60
4097;DHT22;2062;50.694;7.246;2024-03-02T05:33:55;7.00;52.60
4097;DHT22;2062;50.694;7.246;2024-03-02T05:36:21;7.00;52.60
4097;DHT22;2062;50.694;7.246;2024-03-02T05:38:48;7.00;52.70
4097;DHT22;2062;50.694;7.246;2024-03-02T05:41:15;7.00;52.80
4097;DHT22;2062;50.694;7.246;2024-03-02T05:43:42;7.00;52.80
4097;DHT22;2062;50.694;7.246;2024-03-02T05:46:08;7.00;52.70
4097;DHT22;2062;50.694;7.246;2024-03-02T05:48:37;7.00;52.70
4097;DHT22;2062;50.694;7.246;2024-03-02T05:51:04;7.00;52.70
4097;DHT22;2062;50.694;7.246;2024-03-02T05:53:30;7.00;52.80
4097;DHT22;2062;50.694;7.246;2024-03-02T05:55:57;7.00;52.90
4097;DHT22;2062;50.694;7.246;2024-03-02T05:58:24;7.00;52.90
4097;DHT22;2062;50.694;7.246;2024-03-02T06:01:03;7.00;53.20
4097;DHT22;2062;50.694;7.246;2024-03-02T06:03:30;7.00;53.00
4097;DHT22;2062;50.694;7.246;2024-03-02T06:05:58;7.00;53.00
4097;DHT22;2062;50.694;7.246;2024-03-02T06:08:25;7.00;53.10
4097;DHT22;2062;50.694;7.246;2024-03-02T06:10:52;7.00;53.10
4097;DHT22;2062;50.694;7.246;2024-03-02T06:13:19;7.00;53.10
4097;DHT22;2062;50.694;7.246;2024-03-02T06:15:46;7.00;53.00
4097;DHT22;2062;50.694;7.246;2024-03-02T06:18:12;7.00;53.00
4097;DHT22;2062;50.694;7.246;2024-03-02T06:20:39;7.00;52.90
4097;DHT22;2062;50.694;7.246;2024-03-02T06:23:07;6.90;52.90
4097;DHT22;2062;50.694;7.246;2024-03-02T06:25:34;6.90;52.90
4097;DHT22;2062;50.694;7.246;2024-03-02T06:28:01;6.90;53.00
4097;DHT22;2062;50.694;7.246;2024-03-02T06:30:29;6.90;53.00
4097;DHT22;2062;50.694;7.246;2024-03-02T06:32:56;6.90;53.00
4097;DHT22;2062;50.694;7.246;2024-03-02T06:35:23;6.90;53.00
4097;DHT22;2062;50.694;7.246;2024-03-02T06:37:50;6.90;53.10
4097;DHT22;2062;50.694;7.246;2024-03-02T06:40:18;6.90;53.10
4097;DHT22;2062;50.694;7.246;2024-03-02T06:42:44;6.90;53.30
4097;DHT22;2062;50.694;7.246;2024-03-02T06:45:11;6.80;53.10
4097;DHT22;2062;50.694;7.246;2024-03-02T06:47:38;6.90;53.40
4097;DHT22;2062;50.694;7.246;2024-03-02T06:50:05;6.80;53.40
4097;DHT22;2062;50.694;7.246;2024-03-02T06:52:32;6.90;53.70
4097;DHT22;2062;50.694;7.246;2024-03-02T06:54:59;6.90;53.70
4097;DHT22;2062;50.694;7.246;2024-03-02T06:57:27;6.80;53.50
4097;DHT22;2062;50.694;7.246;2024-03-02T06:59:54;6.80;53.50
4097;DHT22;2062;50.694;7.246;2024-03-02T07:02:23;6.80;53.40
4097;DHT22;2062;50.694;7.246;2024-03-02T07:04:52;6.80;53.50
4097;DHT22;2062;50.694;7.246;2024-03-02T07:07:19;6.80;53.40
4097;DHT22;2062;50.694;7.246;2024-03-02T07:09:46;6.80;53.50
4097;DHT22;2062;50.694;7.246;2024-03-02T07:12:13;6.80;53.50
4097;DHT22;2062;50.694;7.246;2024-03-02T07:14:41;6.90;53.60
4097;DHT22;2062;50.694;7.246;2024-03-02T07:17:25;6.90;53.70
4097;DHT22;2062;50.694;7.246;2024-03-02T07:19:52;6.90;53.80
4097;DHT22;2062;50.694;7.246;2024-03-02T07:22:19;6.90;53.70
4097;DHT22;2062;50.694;7.246;2024-03-02T07:24:46;6.90;53.80
4097;DHT22;2062;50.694;7.246;2024-03-02T07:27:13;6.90;54.50
4097;DHT22;2062;50.694;7.246;2024-03-02T07:29:41;6.90;53.90
4097;DHT22;2062;50.694;7.246;2024-03-02T07:32:09;7.00;54.00
4097;DHT22;2062;50.694;7.246;2024-03-02T07:34:36;7.00;53.90
4097;DHT22;2062;50.694;7.246;2024-03-02T07:37:03;7.10;54.00
4097;DHT22;2062;50.694;7.246;2024-03-02T07:39:31;7.20;54.20
4097;DHT22;2062;50.694;7.246;2024-03-02T07:41:58;7.30;54.10
4097;DHT22;2062;50.694;7.246;2024-03-02T07:44:25;7.50;54.60
4097;DHT22;2062;50.694;7.246;2024-03-02T07:46:54;7.60;54.60
4097;DHT22;2062;50.694;7.246;2024-03-02T07:49:20;7.70;55.20
4097;DHT22;2062;50.694;7.246;2024-03-02T07:51:47;8.00;55.00
4097;DHT22;2062;50.694;7.246;2024-03-02T07:54:14;8.20;55.30
4097;DHT22;2062;50.694;7.246;2024-03-02T07:56:41;8.40;55.50
4097;DHT22;2062;50.694;7.246;2024-03-02T07:59:08;8.60;55.60
4097;DHT22;2062;50.694;7.246;2024-03-02T08:01:35;8.80;55.50
4097;DHT22;2062;50.694;7.246;2024-03-02T08:04:03;9.00;55.40
4097;DHT22;2062;50.694;7.246;2024-03-02T08:06:30;9.30;55.30
4097;DHT22;2062;50.694;7.246;2024-03-02T08:08:58;9.50;55.30
4097;DHT22;2062;50.694;7.246;2024-03-02T08:11:25;9.70;55.00
4097;DHT22;2062;50.694;7.246;2024-03-02T08:13:52;9.90;54.70
4097;DHT22;2062;50.694;7.246;2024-03-02T08:16:20;10.00;54.30
4097;DHT22;2062;50.694;7.246;2024-03-02T08:18:47;10.20;54.40
4097;DHT22;2062;50.694;7.246;2024-03-02T08:21:16;10.40;54.30
4097;DHT22;2062;50.694;7.246;2024-03-02T08:23:43;10.60;54.20
4097;DHT22;2062;50.694;7.246;2024-03-02T08:26:10;10.80;54.00
4097;DHT22;2062;50.694;7.246;2024-03-02T08:28:37;11.00;53.80
4097;DHT22;2062;50.694;7.246;2024-03-02T08:31:05;11.20;53.60
4097;DHT22;2062;50.694;7.246;2024-03-02T08:33:32;11.40;53.50
4097;DHT22;2062;50.694;7.246;2024-03-02T08:35:59;11.60;53.30
4097;DHT22;2062;50.694;7.246;2024-03-02T08:38:28;11.80;53.00
4097;DHT22;2062;50.694;7.246;2024-03-02T08:40:55;11.90;52.70
4097;DHT22;2062;50.694;7.246;2024-03-02T08:43:21;12.10;52.30
4097;DHT22;2062;50.694;7.246;2024-03-02T08:45:49;12.30;52.20
4097;DHT22;2062;50.694;7.246;2024-03-02T08:48:16;12.50;52.10
4097;DHT22;2062;50.694;7.246;2024-03-02T08:50:43;12.70;51.70
4097;DHT22;2062;50.694;7.246;2024-03-02T08:53:10;12.80;51.60
4097;DHT22;2062;50.694;7.246;2024-03-02T08:55:38;13.00;51.20
4097;DHT22;2062;50.694;7.246;2024-03-02T08:58:04;13.10;51.20
4097;DHT22;2062;50.694;7.246;2024-03-02T09:00:31;13.30;51.40
4097;DHT22;2062;50.694;7.246;2024-03-02T09:02:58;13.50;50.80
4097;DHT22;2062;50.694;7.246;2024-03-02T09:05:25;13.60;50.40
4097;DHT22;2062;50.694;7.246;2024-03-02T09:07:51;13.80;50.10
4097;DHT22;2062;50.694;7.246;2024-03-02T09:10:18;13.90;50.10
4097;DHT22;2062;50.694;7.246;2024-03-02T09:12:46;14.00;48.90
4097;DHT22;2062;50.694;7.246;2024-03-02T09:15:13;14.10;49.00
4097;DHT22;2062;50.694;7.246;2024-03-02T09:17:40;14.20;48.70
4097;DHT22;2062;50.694;7.246;2024-03-02T09:20:07;14.20;48.10
4097;DHT22;2062;50.694;7.246;2024-03-02T09:22:34;14.20;46.60
4097;DHT22;2062;50.694;7.246;2024-03-02T09:25:01;14.30;47.80
4097;DHT22;2062;50.694;7.246;2024-03-02T09:27:28;14.30;48.00
4097;DHT22;2062;50.694;7.246;2024-03-02T09:29:56;14.40;47.40
4097;DHT22;2062;50.694;7.246;2024-03-02T09:32:23;14.40;47.60
4097;DHT22;2062;50.694;7.246;2024-03-02T09:34:50;14.50;47.20
4097;DHT22;2062;50.694;7.246;2024-03-02T09:37:17;14.60;47.10
4097;DHT22;2062;50.694;7.246;2024-03-02T09:39:44;14.60;47.20
4097;DHT22;2062;50.694;7.246;2024-03-02T09:42:12;14.80;47.70
4097;DHT22;2062;50.694;7.246;2024-03-02T09:44:39;14.90;47.70
4097;DHT22;2062;50.694;7.246;2024-03-02T09:47:08;15.00;47.50
4097;DHT22;2062;50.694;7.246;2024-03-02T09:49:35;15.10;46.50
4097;DHT22;2062;50.694;7.246;2024-03-02T09:52:03;15.20;46.90
4097;DHT22;2062;50.694;7.246;2024-03-02T09:54:31;15.30;47.00
4097;DHT22;2062;50.694;7.246;2024-03-02T09:56:58;15.40;47.00
4097;DHT22;2062;50.694;7.246;2024-03-02T09:59:27;15.50;46.30
4097;DHT22;2062;50.694;7.246;2024-03-02T10:01:58;15.60;46.10
4097;DHT22;2062;50.694;7.246;2024-03-02T10:04:27;15.70;46.20
4097;DHT22;2062;50.694;7.246;2024-03-02T10:07:11;15.80;45.90
4097;DHT22;2062;50.694;7.246;2024-03-02T10:09:38;15.90;45.90
4097;DHT22;2062;50.694;7.246;2024-03-02T10:12:06;16.00;44.90
4097;DHT22;2062;50.694;7.246;2024-03-02T10:14:33;16.10;45.70
4097;DHT22;2062;50.694;7.246;2024-03-02T10:17:04;16.20;45.80
4097;DHT22;2062;50.694;7.246;2024-03-02T10:19:33;16.30;45.80
4097;DHT22;2062;50.694;7.246;2024-03-02T10:22:03;16.40;45.60
4097;DHT22;2062;50.694;7.246;2024-03-02T10:24:36;16.50;45.30
4097;DHT22;2062;50.694;7.246;2024-03-02T10:27:07;16.60;45.00
4097;DHT22;2062;50.694;7.246;2024-03-02T10:29:37;16.60;44.50
4097;DHT22;2062;50.694;7.246;2024-03-02T10:32:05;16.60;44.00
4097;DHT22;2062;50.694;7.246;2024-03-02T10:34:34;16.60;42.70
4097;DHT22;2062;50.694;7.246;2024-03-02T10:37:02;16.60;42.20
4097;DHT22;2062;50.694;7.246;2024-03-02T10:39:29;16.40;42.60
4097;DHT22;2062;50.694;7.246;2024-03-02T10:41:57;16.40;42.50
4097;DHT22;2062;50.694;7.246;2024-03-02T10:44:25;16.30;42.30
4097;DHT22;2062;50.694;7.246;2024-03-02T10:46:53;16.30;42.30
4097;DHT22;2062;50.694;7.246;2024-03-02T10:49:22;16.20;42.00
4097;DHT22;2062;50.694;7.246;2024-03-02T10:51:51;16.20;42.20
4097;DHT22;2062;50.694;7.246;2024-03-02T10:54:18;16.10;42.30
4097;DHT22;2062;50.694;7.246;2024-03-02T10:56:51;16.10;42.20
4097;DHT22;2062;50.694;7.246;2024-03-02T10:59:24;16.00;41.80
4097;DHT22;2062;50.694;7.246;2024-03-02T11:01:55;15.90;41.10
4097;DHT22;2062;50.694;7.246;2024-03-02T11:04:25;15.70;41.20
4097;DHT22;2062;50.694;7.246;2024-03-02T11:06:59;15.70;41.70
4097;DHT22;2062;50.694;7.246;2024-03-02T11:09:28;15.50;41.40
4097;DHT22;2062;50.694;7.246;2024-03-02T11:12:02;15.50;41.70
4097;DHT22;2062;50.694;7.246;2024-03-02T11:14:31;15.30;41.80
4097;DHT22;2062;50.694;7.246;2024-03-02T11:16:59;15.30;42.20
4097;DHT22;2062;50.694;7.246;2024-03-02T11:19:27;15.20;42.20
4097;DHT22;2062;50.694;7.246;2024-03-02T11:21:56;15.20;43.10
4097;DHT22;2062;50.694;7.246;2024-03-02T11:24:29;15.10;42.20
4097;DHT22;2062;50.694;7.246;2024-03-02T11:26:58;15.10;42.00
4097;DHT22;2062;50.694;7.246;2024-03-02T11:29:43;15.00;41.90
4097;DHT22;2062;50.694;7.246;2024-03-02T11:32:15;14.90;41.70
4097;DHT22;2062;50.694;7.246;2024-03-02T11:34:43;14.90;42.20
4097;DHT22;2062;50.694;7.246;2024-03-02T11:37:13;14.80;42.00
4097;DHT22;2062;50.694;7.246;2024-03-02T11:39:42;14.80;42.40
4097;DHT22;2062;50.694;7.246;2024-03-02T11:42:11;14.80;42.60
4097;DHT22;2062;50.694;7.246;2024-03-02T11:44:39;14.70;42.50
4097;DHT22;2062;50.694;7.246;2024-03-02T11:47:09;14.70;42.90
4097;DHT22;2062;50.694;7.246;2024-03-02T11:49:38;14.70;43.20
4097;DHT22;2062;50.694;7.246;2024-03-02T11:52:06;14.70;43.20
4097;DHT22;2062;50.694;7.246;2024-03-02T11:54:36;14.70;43.30
4097;DHT22;2062;50.694;7.246;2024-03-02T11:57:05;14.70;43.40
4097;DHT22;2062;50.694;7.246;2024-03-02T11:59:32;14.80;43.30
4097;DHT22;2062;50.694;7.246;2024-03-02T12:01:59;14.80;43.40
4097;DHT22;2062;50.694;7.246;2024-03-02T12:04:26;14.80;43.50
4097;DHT22;2062;50.694;7.246;2024-03-02T12:06:54;14.80;43.40
4097;DHT22;2062;50.694;7.246;2024-03-02T12:09:21;14.80;43.40
4097;DHT22;2062;50.694;7.246;2024-03-02T12:12:01;14.90;43.30
4097;DHT22;2062;50.694;7.246;2024-03-02T12:14:28;14.90;43.30
4097;DHT22;2062;50.694;7.246;2024-03-02T12:16:55;14.90;43.60
4097;DHT22;2062;50.694;7.246;2024-03-02T12:19:24;14.90;43.70
4097;DHT22;2062;50.694;7.246;2024-03-02T12:21:50;14.90;43.60
4097;DHT22;2062;50.694;7.246;2024-03-02T12:24:17;14.90;43.50
4097;DHT22;2062;50.694;7.246;2024-03-02T12:26:45;14.90;43.60
4097;DHT22;2062;50.694;7.246;2024-03-02T12:29:14;14.90;43.90
4097;DHT22;2062;50.694;7.246;2024-03-02T12:31:42;14.90;43.60
4097;DHT22;2062;50.694;7.246;2024-03-02T12:34:12;15.00;43.80
4097;DHT22;2062;50.694;7.246;2024-03-02T12:36:39;15.00;43.60
4097;DHT22;2062;50.694;7.246;2024-03-02T12:39:07;15.00;43.80
4097;DHT22;2062;50.694;7.246;2024-03-02T12:41:36;15.10;44.20
4097;DHT22;2062;50.694;7.246;2024-03-02T12:44:02;15.00;44.10
4097;DHT22;2062;50.694;7.246;2024-03-02T12:46:30;15.20;44.50
4097;DHT22;2062;50.694;7.246;2024-03-02T12:48:57;15.30;44.50
4097;DHT22;2062;50.694;7.246;2024-03-02T12:51:24;15.30;44.70
4097;DHT22;2062;50.694;7.246;2024-03-02T12:53:53;15.40;44.60
4097;DHT22;2062;50.694;7.246;2024-03-02T12:56:20;15.60;44.00
4097;DHT22;2062;50.694;7.246;2024-03-02T12:58:47;15.70;44.10
4097;DHT22;2062;50.694;7.246;2024-03-02T13:01:15;15.70;43.70
4097;DHT22;2062;50.694;7.246;2024-03-02T13:03:48;15.80;43.10
4097;DHT22;2062;50.694;7.246;2024-03-02T13:06:16;15.90;43.40
4097;DHT22;2062;50.694;7.246;2024-03-02T13:08:43;16.00;43.60
4097;DHT22;2062;50.694;7.246;2024-03-02T13:11:11;16.10;43.20
4097;DHT22;2062;50.694;7.246;2024-03-02T13:13:38;16.10;42.90
4097;DHT22;2062;50.694;7.246;2024-03-02T13:16:08;16.20;43.10
4097;DHT22;2062;50.694;7.246;2024-03-02T13:18:35;16.30;43.30
4097;DHT22;2062;50.694;7.246;2024-03-02T13:21:03;16.40;43.30
4097;DHT22;2062;50.694;7.246;2024-03-02T13:23:30;16.40;42.50
4097;DHT22;2062;50.694;7.246;2024-03-02T13:25:57;16.60;43.10
4097;DHT22;2062;50.694;7.246;2024-03-02T13:28:24;16.60;42.80
4097;DHT22;2062;50.694;7.246;2024-03-02T13:30:51;16.70;42.70
4097;DHT22;2062;50.694;7.246;2024-03-02T13:33:18;16.80;42.10
4097;DHT22;2062;50.694;7.246;2024-03-02T13:35:48;16.80;42.90
4097;DHT22;2062;50.694;7.246;2024-03-02T13:38:16;16.70;41.70
4097;DHT22;2062;50.694;7.246;2024-03-02T13:40:43;16.80;41.70
4097;DHT22;2062;50.694;7.246;2024-03-02T13:43:10;16.70;41.80
4097;DHT22;2062;50.694;7.246;2024-03-02T13:45:37;16.90;41.60
4097;DHT22;2062;50.694;7.246;2024-03-02T13:48:04;16.70;41.50
4097;DHT22;2062;50.694;7.246;2024-03-02T13:50:32;16.70;41.50
4097;DHT22;2062;50.694;7.246;2024-03-02T13:52:59;16.70;41.40
4097;DHT22;2062;50.694;7.246;2024-03-02T13:55:27;16.70;42.10
4097;DHT22;2062;50.694;7.246;2024-03-02T13:57:53;16.70;40.90
4097;DHT22;2062;50.694;7.246;2024-03-02T14:00:20;16.60;40.70
4097;DHT22;2062;50.694;7.246;2024-03-02T14:02:47;16.60;41.00
4097;DHT22;2062;50.694;7.246;2024-03-02T14:05:15;16.60;40.60
4097;DHT22;2062;50.694;7.246;2024-03-02T14:07:42;16.60;40.50
4097;DHT22;2062;50.694;7.246;2024-03-02T14:10:09;16.50;40.80
4097;DHT22;2062;50.694;7.246;2024-03-02T14:12:38;16.50;40.40
4097;DHT22;2062;50.694;7.246;2024-03-02T14:15:06;16.40;39.90
4097;DHT22;2062;50.694;7.246;2024-03-02T14:17:33;16.40;40.30
4097;DHT22;2062;50.694;7.246;2024-03-02T14:20:00;16.40;40.70
4097;DHT22;2062;50.694;7.246;2024-03-02T14:22:27;16.40;40.90
4097;DHT22;2062;50.694;7.246;2024-03-02T14:24:54;16.30;40.70
4097;DHT22;2062;50.694;7.246;2024-03-02T14:27:20;16.30;40.30
4097;DHT22;2062;50.694;7.246;2024-03-02T14:29:49;16.30;40.50
4097;DHT22;2062;50.694;7.246;2024-03-02T14:32:15;16.30;40.50
4097;DHT22;2062;50.694;7.246;2024-03-02T14:34:42;16.30;39.70
4097;DHT22;2062;50.694;7.246;2024-03-02T14:37:12;16.30;39.70
4097;DHT22;2062;50.694;7.246;2024-03-02T14:39:39;16.10;39.70
4097;DHT22;2062;50.694;7.246;2024-03-02T14:42:05;16.10;39.50
4097;DHT22;2062;50.694;7.246;2024-03-02T14:44:33;16.00;39.20
4097;DHT22;2062;50.694;7.246;2024-03-02T14:47:01;16.00;39.20
4097;DHT22;2062;50.694;7.246;2024-03-02T14:49:29;15.90;39.20
4097;DHT22;2062;50.694;7.246;2024-03-02T14:51:56;15.80;39.90
4097;DHT22;2062;50.694;7.246;2024-03-02T14:54:23;15.80;39.20
4097;DHT22;2062;50.694;7.246;2024-03-02T14:56:50;15.70;39.40
4097;DHT22;2062;50.694;7.246;2024-03-02T14:59:17;15.70;39.30
4097;DHT22;2062;50.694;7.246;2024-03-02T15:01:44;15.60;39.20
4097;DHT22;2062;50.694;7.246;2024-03-02T15:04:13;15.50;39.20
4097;DHT22;2062;50.694;7.246;2024-03-02T15:06:41;15.40;39.10
4097;DHT22;2062;50.694;7.246;2024-03-02T15:09:08;15.30;39.00
4097;DHT22;2062;50.694;7.246;2024-03-02T15:11:35;15.30;39.30
4097;DHT22;2062;50.694;7.246;2024-03-02T15:14:02;15.20;39.10
4097;DHT22;2062;50.694;7.246;2024-03-02T15:16:29;15.10;39.30
4097;DHT22;2062;50.694;7.246;2024-03-02T15:18:55;15.10;39.30
4097;DHT22;2062;50.694;7.246;2024-03-02T15:21:24;15.00;39.40
4097;DHT22;2062;50.694;7.246;2024-03-02T15:23:50;14.90;39.40
4097;DHT22;2062;50.694;7.246;2024-03-02T15:26:17;14.90;39.60
4097;DHT22;2062;50.694;7.246;2024-03-02T15:28:44;14.90;39.60
4097;DHT22;2062;50.694;7.246;2024-03-02T15:31:11;14.80;39.70
4097;DHT22;2062;50.694;7.246;2024-03-02T15:33:37;14.70;39.60
4097;DHT22;2062;50.694;7.246;2024-03-02T15:36:05;14.70;39.90
4097;DHT22;2062;50.694;7.246;2024-03-02T15:38:33;14.70;40.00
4097;DHT22;2062;50.694;7.246;2024-03-02T15:41:03;14.70;40.10
4097;DHT22;2062;50.694;7.246;2024-03-02T15:43:29;14.60;40.10
4097;DHT22;2062;50.694;7.246;2024-03-02T15:45:57;14.60;40.20
4097;DHT22;2062;50.694;7.246;2024-03-02T15:48:24;14.50;39.80
4097;DHT22;2062;50.694;7.246;2024-03-02T15:50:51;14.50;40.00
4097;DHT22;2062;50.694;7.246;2024-03-02T15:53:18;14.50;40.00
4097;DHT22;2062;50.694;7.246;2024-03-02T15:55:47;14.40;40.00
4097;DHT22;2062;50.694;7.246;2024-03-02T15:58:14;14.40;40.00
4097;DHT22;2062;50.694;7.246;2024-03-02T16:00:41;14.30;40.30
4097;DHT22;2062;50.694;7.246;2024-03-02T16:03:08;14.30;40.20
4097;DHT22;2062;50.694;7.246;2024-03-02T16:05:34;14.30;40.20
4097;DHT22;2062;50.694;7.246;2024-03-02T16:08:03;14.20;40.10
4097;DHT22;2062;50.694;7.246;2024-03-02T16:10:30;14.20;40.10
4097;DHT22;2062;50.694;7.246;2024-03-02T16:12:59;14.20;40.30
4097;DHT22;2062;50.694;7.246;2024-03-02T16:15:26;14.10;40.20